Time;durP1;ratioP1;P1;durP2;ratioP2;P2;SDS_P1;SDS_P2;PMS_P1;PMS_P2;Temp;Humidity;BMP_temperature;BMP_pressure;BME280_temperature;BME280_humidity;BME280_pressure;Samples;Min_cycle;Max_cycle;Signal;HPM_P1;HPM_P2
2022/02/17 00:02:24;;;;;;;2.00;0.70;;;17.70;60.00;;;;;;5135197;27;20024;-43
2022/02/17 00:04:50;;;;;;;1.02;0.65;;;17.70;60.00;;;;;;5135014;27;20042;-43
2022/02/17 00:07:16;;;;;;;1.65;0.60;;;17.70;60.00;;;;;;5135021;27;20019;-46
2022/02/17 00:09:42;;;;;;;2.00;0.60;;;17.70;60.00;;;;;;5134986;27;20431;-43
2022/02/17 00:12:09;;;;;;;2.92;0.93;;;17.70;59.90;;;;;;5135180;27;20037;-43
2022/02/17 00:14:37;;;;;;;1.52;0.63;;;17.70;59.90;;;;;;5136382;27;20095;-43
2022/02/17 00:17:03;;;;;;;1.73;0.60;;;17.70;59.80;;;;;;5135784;27;20069;-43
2022/02/17 00:19:29;;;;;;;1.73;0.73;;;17.70;59.80;;;;;;5133936;27;20043;-43
2022/02/17 00:21:58;;;;;;;1.85;0.60;;;17.70;59.90;;;;;;5133463;27;20578;-43
2022/02/17 00:24:24;;;;;;;1.85;0.60;;;17.70;59.80;;;;;;5135433;27;20084;-43
2022/02/17 00:26:50;;;;;;;4.28;0.80;;;17.70;59.80;;;;;;5134755;27;20462;-44
2022/02/17 00:29:17;;;;;;;2.30;0.90;;;17.60;59.70;;;;;;5134375;27;20026;-44
2022/02/17 00:31:43;;;;;;;1.70;0.60;;;17.60;59.70;;;;;;5134566;27;20023;-43
2022/02/17 00:34:10;;;;;;;2.22;0.70;;;17.60;59.60;;;;;;5134437;27;20477;-43
2022/02/17 00:36:36;;;;;;;1.55;0.55;;;17.60;59.60;;;;;;5134576;27;20070;-43
2022/02/17 00:39:03;;;;;;;1.90;0.60;;;17.60;59.60;;;;;;5134788;27;20007;-43
2022/02/17 00:41:29;;;;;;;1.95;0.90;;;17.60;59.40;;;;;;5134471;27;20457;-42
2022/02/17 00:43:55;;;;;;;2.15;0.80;;;17.70;59.40;;;;;;5134946;27;20030;-42
2022/02/17 00:46:21;;;;;;;1.70;0.75;;;17.60;59.40;;;;;;5134360;27;20477;-42
2022/02/17 00:48:47;;;;;;;3.08;0.90;;;17.70;59.30;;;;;;5135172;27;20420;-43
2022/02/17 00:51:14;;;;;;;4.18;0.85;;;17.60;59.20;;;;;;5135133;27;20019;-43
2022/02/17 00:53:40;;;;;;;2.28;0.77;;;17.70;59.20;;;;;;5134107;27;20478;-43
2022/02/17 00:56:07;;;;;;;5.65;1.15;;;17.60;59.10;;;;;;5135241;27;20011;-43
2022/02/17 00:58:33;;;;;;;3.10;0.77;;;17.60;59.00;;;;;;5134919;27;20004;-43
2022/02/17 01:00:58;;;;;;;3.00;0.70;;;17.60;58.90;;;;;;5134561;27;20397;-43
2022/02/17 01:03:24;;;;;;;3.13;1.02;;;17.60;58.90;;;;;;5134369;28;20457;-43
2022/02/17 01:05:50;;;;;;;2.20;0.77;;;17.60;58.80;;;;;;5134357;27;20019;-44
2022/02/17 01:08:15;;;;;;;3.33;1.02;;;17.70;58.70;;;;;;5133086;28;20023;-44
2022/02/17 01:10:42;;;;;;;3.70;1.10;;;17.60;58.70;;;;;;5134329;28;20027;-44
2022/02/17 01:13:08;;;;;;;2.10;0.82;;;17.60;58.70;;;;;;5135511;28;20027;-42
2022/02/17 01:15:35;;;;;;;4.10;1.08;;;17.60;58.60;;;;;;5135209;28;20015;-43
2022/02/17 01:18:02;;;;;;;7.13;1.20;;;17.60;59.00;;;;;;5134618;28;20038;-43
2022/02/17 01:20:28;;;;;;;2.65;1.02;;;17.60;58.40;;;;;;5134672;27;20030;-43
2022/02/17 01:22:55;;;;;;;3.75;0.93;;;17.60;58.30;;;;;;5134252;28;20015;-42
2022/02/17 01:25:21;;;;;;;3.42;1.00;;;17.60;58.10;;;;;;5134183;27;20023;-45
2022/02/17 01:27:47;;;;;;;3.58;1.20;;;17.60;58.10;;;;;;5133961;28;20497;-41
2022/02/17 01:30:13;;;;;;;3.67;1.10;;;17.60;58.10;;;;;;5134072;28;20102;-43
2022/02/17 01:32:40;;;;;;;4.43;1.15;;;17.60;58.00;;;;;;5134683;28;20015;-43
2022/02/17 01:35:07;;;;;;;2.97;1.10;;;17.60;57.90;;;;;;5134414;28;20113;-43
2022/02/17 01:37:34;;;;;;;4.32;1.10;;;17.60;57.80;;;;;;5134702;27;20022;-43
2022/02/17 01:39:59;;;;;;;5.75;1.40;;;17.60;57.80;;;;;;5135666;28;20007;-43
2022/02/17 01:42:38;;;;;;;3.13;1.25;;;17.60;57.60;;;;;;5135660;28;20027;-43
2022/02/17 01:45:04;;;;;;;5.20;1.83;;;17.60;57.70;;;;;;5135293;27;20015;-43
2022/02/17 01:47:30;;;;;;;3.78;1.20;;;17.60;57.60;;;;;;5134448;27;20114;-43
2022/02/17 01:49:57;;;;;;;3.58;1.40;;;17.60;57.40;;;;;;5134389;28;20023;-43
2022/02/17 01:52:23;;;;;;;6.07;2.03;;;17.60;57.20;;;;;;5134298;27;20026;-42
2022/02/17 01:54:49;;;;;;;7.00;1.40;;;17.60;57.30;;;;;;5133942;27;20413;-43
2022/02/17 01:57:16;;;;;;;4.47;1.30;;;17.60;57.10;;;;;;5132875;28;20008;-43
2022/02/17 01:59:43;;;;;;;4.70;1.33;;;17.60;57.00;;;;;;5134902;27;20034;-43
2022/02/17 02:02:10;;;;;;;5.40;1.80;;;17.60;57.00;;;;;;5134690;27;20454;-43
2022/02/17 02:04:37;;;;;;;7.03;1.67;;;17.50;56.80;;;;;;5134269;28;20027;-42
2022/02/17 02:07:03;;;;;;;6.10;1.65;;;17.50;56.80;;;;;;5134857;27;20060;-43
2022/02/17 02:09:29;;;;;;;5.25;1.60;;;17.50;56.70;;;;;;5139344;27;20140;-44
2022/02/17 02:11:55;;;;;;;5.57;1.55;;;17.50;57.20;;;;;;5138203;27;20050;-43
2022/02/17 02:14:21;;;;;;;4.55;1.35;;;17.50;56.50;;;;;;5136378;27;20488;-43
2022/02/17 02:16:47;;;;;;;4.68;1.58;;;17.50;56.40;;;;;;5137978;27;20011;-43
2022/02/17 02:19:14;;;;;;;7.82;1.75;;;17.60;56.30;;;;;;5137399;27;20554;-47
2022/02/17 02:21:40;;;;;;;6.88;2.05;;;17.60;56.10;;;;;;5137362;27;20012;-43
2022/02/17 02:24:06;;;;;;;4.97;1.73;;;17.50;56.20;;;;;;5137291;27;20015;-43
2022/02/17 02:26:33;;;;;;;5.18;1.63;;;17.50;56.00;;;;;;5137198;27;20493;-44
2022/02/17 02:29:02;;;;;;;7.50;1.67;;;17.50;56.00;;;;;;5135692;27;20015;-43
2022/02/17 02:31:27;;;;;;;7.97;1.90;;;17.50;55.90;;;;;;5136009;27;20015;-43
2022/02/17 02:33:53;;;;;;;6.22;1.77;;;17.50;55.80;;;;;;5136756;27;20500;-44
2022/02/17 02:36:19;;;;;;;7.68;1.73;;;17.50;55.80;;;;;;5137012;27;20458;-42
2022/02/17 02:38:45;;;;;;;5.35;1.70;;;17.50;55.70;;;;;;5136999;27;20011;-43
2022/02/17 02:41:11;;;;;;;5.05;1.83;;;17.50;55.60;;;;;;5118939;27;20019;-43
2022/02/17 02:43:37;;;;;;;6.13;2.00;;;17.50;55.50;;;;;;5137263;27;20015;-43
2022/02/17 02:46:04;;;;;;;5.03;1.38;;;17.50;55.30;;;;;;5137340;27;20019;-43
2022/02/17 02:48:30;;;;;;;4.82;1.50;;;17.50;55.30;;;;;;5137244;27;20015;-43
2022/02/17 02:50:55;;;;;;;7.10;1.80;;;17.50;55.30;;;;;;5137022;27;20027;-43
2022/02/17 02:53:21;;;;;;;6.90;1.80;;;17.50;55.30;;;;;;5135461;27;20522;-44
2022/02/17 02:55:48;;;;;;;9.07;1.85;;;17.50;55.20;;;;;;5136317;27;20022;-43
2022/02/17 02:58:15;;;;;;;4.60;2.03;;;17.50;55.10;;;;;;5136472;27;20020;-45
2022/02/17 03:00:41;;;;;;;7.28;1.70;;;17.50;55.00;;;;;;5134850;27;20094;-43
2022/02/17 03:03:07;;;;;;;6.70;1.90;;;17.40;54.90;;;;;;5135954;27;20489;-45
2022/02/17 03:05:34;;;;;;;5.50;1.88;;;17.40;54.90;;;;;;5135830;27;20011;-44
2022/02/17 03:08:00;;;;;;;6.45;1.85;;;17.40;54.60;;;;;;5136162;27;20049;-43
2022/02/17 03:10:28;;;;;;;4.53;1.70;;;17.40;54.80;;;;;;5134746;27;20431;-44
2022/02/17 03:12:54;;;;;;;6.78;2.20;;;17.40;54.60;;;;;;5135687;27;20015;-44
2022/02/17 03:15:20;;;;;;;7.75;1.88;;;17.40;54.60;;;;;;5135821;27;20038;-43
2022/02/17 03:17:46;;;;;;;7.10;2.17;;;17.50;54.50;;;;;;5135618;27;20015;-44
2022/02/17 03:20:15;;;;;;;7.03;2.40;;;17.40;54.50;;;;;;5134268;27;20100;-44
2022/02/17 03:22:41;;;;;;;9.55;2.22;;;17.40;54.50;;;;;;5135579;27;20017;-44
2022/02/17 03:25:08;;;;;;;8.15;2.05;;;17.40;54.40;;;;;;5135683;27;20015;-44
2022/02/17 03:27:35;;;;;;;6.40;2.00;;;17.40;54.30;;;;;;5135722;27;20035;-44
2022/02/17 03:30:01;;;;;;;6.43;2.15;;;17.40;54.20;;;;;;5134470;27;20015;-46
2022/02/17 03:32:28;;;;;;;7.80;2.08;;;17.40;54.20;;;;;;5137373;27;20035;-49
2022/02/17 03:34:54;;;;;;;6.97;2.53;;;17.40;54.00;;;;;;5135900;27;20524;-44
2022/02/17 03:37:20;;;;;;;6.70;1.85;;;17.40;53.90;;;;;;5137665;27;20026;-45
2022/02/17 03:39:46;;;;;;;5.45;1.88;;;17.40;53.90;;;;;;5140918;27;20011;-45
2022/02/17 03:42:12;;;;;;;7.55;2.05;;;17.40;54.00;;;;;;5136156;27;20015;-45
2022/02/17 03:44:39;;;;;;;7.40;2.50;;;17.40;53.80;;;;;;5137102;27;20023;-45
2022/02/17 03:47:06;;;;;;;7.65;1.90;;;17.40;53.80;;;;;;5136524;27;20022;-45
2022/02/17 03:49:32;;;;;;;8.43;2.10;;;17.40;53.90;;;;;;5136126;27;20026;-45
2022/02/17 03:51:58;;;;;;;5.57;1.90;;;17.40;53.50;;;;;;5135830;27;20031;-47
2022/02/17 03:54:25;;;;;;;7.88;2.08;;;17.40;53.50;;;;;;5135618;27;20034;-45
2022/02/17 03:56:51;;;;;;;7.95;2.15;;;17.40;53.50;;;;;;5135640;27;20007;-45
2022/02/17 03:59:17;;;;;;;5.95;1.75;;;17.40;53.50;;;;;;5135547;27;20537;-49
2022/02/17 04:01:43;;;;;;;8.05;2.35;;;17.40;53.40;;;;;;5135173;27;20083;-47
2022/02/17 04:04:10;;;;;;;7.40;2.08;;;17.30;53.30;;;;;;5135365;27;20046;-46
2022/02/17 04:06:38;;;;;;;8.27;2.40;;;17.30;53.40;;;;;;5135284;27;20023;-47
2022/02/17 04:09:05;;;;;;;5.90;2.20;;;17.30;53.20;;;;;;5135621;27;20144;-48
2022/02/17 04:11:31;;;;;;;7.38;2.50;;;17.30;53.20;;;;;;5135891;27;20016;-48
2022/02/17 04:13:57;;;;;;;7.18;2.67;;;17.30;53.70;;;;;;5136788;27;20034;-46
2022/02/17 04:16:22;;;;;;;5.43;2.20;;;17.30;53.20;;;;;;5136458;27;20011;-46
2022/02/17 04:18:48;;;;;;;9.57;2.90;;;17.30;53.00;;;;;;5135849;27;20050;-49
2022/02/17 04:21:16;;;;;;;7.40;2.50;;;17.30;52.90;;;;;;5136259;27;20007;-50
2022/02/17 04:23:45;;;;;;;8.00;2.83;;;17.30;53.10;;;;;;5135936;27;20008;-49
2022/02/17 04:26:12;;;;;;;7.57;2.10;;;17.30;52.90;;;;;;5136517;27;20042;-51
2022/02/17 04:28:38;;;;;;;7.20;2.17;;;17.40;52.90;;;;;;5136459;27;20031;-48
2022/02/17 04:31:05;;;;;;;7.80;2.22;;;17.40;52.80;;;;;;5135340;27;20025;-46
2022/02/17 04:33:32;;;;;;;6.55;2.22;;;17.30;52.80;;;;;;5136019;27;20028;-47
2022/02/17 04:35:57;;;;;;;11.55;3.15;;;17.30;52.90;;;;;;5137638;27;20030;-47
2022/02/17 04:38:23;;;;;;;5.30;2.05;;;17.30;52.80;;;;;;5135665;27;20011;-46
2022/02/17 04:43:33;;;;;;;8.02;2.70;;;17.30;52.80;;;;;;5135109;27;20088;-46
2022/02/17 04:45:59;;;;;;;6.50;2.55;;;17.30;52.80;;;;;;5133523;27;20393;-46
2022/02/17 04:48:25;;;;;;;6.78;2.42;;;17.30;52.80;;;;;;5134433;27;20026;-50
2022/02/17 04:50:51;;;;;;;9.70;3.25;;;17.30;52.60;;;;;;5133775;27;20038;-48
2022/02/17 04:53:17;;;;;;;6.97;2.33;;;17.30;52.60;;;;;;5134288;27;20027;-50
2022/02/17 04:55:43;;;;;;;9.07;2.63;;;17.30;52.60;;;;;;5134179;27;20003;-48
2022/02/17 04:58:10;;;;;;;7.60;2.40;;;17.30;52.70;;;;;;5134642;27;20095;-47
2022/02/17 05:00:36;;;;;;;11.88;2.80;;;17.30;52.60;;;;;;5137484;27;20043;-48
2022/02/17 05:03:02;;;;;;;8.40;2.40;;;17.20;52.60;;;;;;5136530;27;20024;-47
2022/02/17 05:05:29;;;;;;;6.60;2.40;;;17.20;52.50;;;;;;5134477;27;20020;-49
2022/02/17 05:07:56;;;;;;;10.85;3.22;;;17.30;52.50;;;;;;5134353;27;20030;-45
2022/02/17 05:10:24;;;;;;;6.00;2.17;;;17.20;52.30;;;;;;5134594;28;20029;-45
2022/02/17 05:12:51;;;;;;;8.10;2.60;;;17.20;52.40;;;;;;5134087;27;20072;-47
2022/02/17 05:15:17;;;;;;;7.45;2.60;;;17.20;52.30;;;;;;5134304;28;20023;-46
2022/02/17 05:17:44;;;;;;;11.50;3.08;;;17.30;52.40;;;;;;5132839;28;20098;-48
2022/02/17 05:20:11;;;;;;;6.80;2.47;;;17.30;52.20;;;;;;5136730;28;20091;-49
2022/02/17 05:22:43;;;;;;;6.68;2.40;;;17.20;52.20;;;;;;5134973;27;20533;-48
2022/02/17 05:25:10;;;;;;;11.90;2.55;;;17.20;52.30;;;;;;5133954;27;20011;-47
2022/02/17 05:27:36;;;;;;;9.80;3.03;;;17.20;52.20;;;;;;5134347;28;20012;-50
2022/02/17 05:30:01;;;;;;;10.63;3.15;;;17.20;52.20;;;;;;5134168;27;20016;-49
2022/02/17 05:32:28;;;;;;;9.60;2.92;;;17.20;52.20;;;;;;5134101;28;20030;-49
2022/02/17 05:34:54;;;;;;;9.15;2.45;;;17.20;52.20;;;;;;5133594;27;20023;-49
2022/02/17 05:37:20;;;;;;;7.97;2.75;;;17.20;52.10;;;;;;5133969;28;20022;-47
2022/02/17 05:39:46;;;;;;;10.65;3.15;;;17.20;52.10;;;;;;5132915;28;20087;-45
2022/02/17 05:42:12;;;;;;;9.40;3.05;;;17.20;52.10;;;;;;5134763;27;20034;-49
2022/02/17 05:44:38;;;;;;;6.25;2.65;;;17.20;52.10;;;;;;5120716;27;20035;-48
2022/02/17 05:47:04;;;;;;;11.55;3.20;;;17.20;52.00;;;;;;5137824;27;20066;-50
2022/02/17 05:49:30;;;;;;;9.73;2.85;;;17.20;52.00;;;;;;5136977;27;20022;-50
2022/02/17 05:51:55;;;;;;;11.82;3.00;;;17.10;51.90;;;;;;5137876;27;20023;-51
2022/02/17 05:54:22;;;;;;;6.68;2.63;;;17.20;52.00;;;;;;5136580;27;20137;-46
2022/02/17 05:56:48;;;;;;;11.70;3.78;;;17.20;52.00;;;;;;5138025;27;20011;-47
2022/02/17 05:59:14;;;;;;;9.57;3.05;;;17.20;52.00;;;;;;5138516;27;20018;-46
2022/02/17 06:01:40;;;;;;;9.70;3.22;;;17.20;51.90;;;;;;5138806;27;20034;-45
2022/02/17 06:04:07;;;;;;;7.53;2.78;;;17.10;51.80;;;;;;5136465;27;20477;-46
2022/02/17 06:06:36;;;;;;;10.52;2.85;;;17.10;51.70;;;;;;5136636;27;20021;-46
2022/02/17 06:09:02;;;;;;;8.85;2.85;;;17.10;51.70;;;;;;5136623;27;20508;-46
2022/02/17 06:11:28;;;;;;;10.13;3.00;;;17.10;51.70;;;;;;5137676;27;20038;-45
2022/02/17 06:13:54;;;;;;;13.02;3.60;;;17.10;51.90;;;;;;5138578;27;20023;-46
2022/02/17 06:16:20;;;;;;;8.10;2.90;;;17.10;51.80;;;;;;5137996;27;20064;-45
2022/02/17 06:18:47;;;;;;;8.02;2.63;;;17.10;51.70;;;;;;5138308;27;20042;-46
2022/02/17 06:21:12;;;;;;;7.85;3.00;;;17.10;51.70;;;;;;5137883;27;20019;-48
2022/02/17 06:23:38;;;;;;;11.38;3.20;;;17.10;51.80;;;;;;5137224;27;20481;-48
2022/02/17 06:26:04;;;;;;;11.15;3.38;;;17.10;51.80;;;;;;5137697;27;20015;-48
2022/02/17 06:28:31;;;;;;;9.73;3.00;;;17.10;51.70;;;;;;5137773;27;20019;-49
2022/02/17 06:30:56;;;;;;;7.80;3.28;;;17.10;51.80;;;;;;5136548;27;20022;-47
2022/02/17 06:33:22;;;;;;;11.75;3.58;;;17.10;51.70;;;;;;5136425;27;20483;-49
2022/02/17 06:35:48;;;;;;;8.60;3.00;;;17.10;51.60;;;;;;5138605;27;20030;-48
2022/02/17 06:38:13;;;;;;;9.73;3.50;;;17.00;51.60;;;;;;5138515;27;20019;-49
2022/02/17 06:40:39;;;;;;;8.50;2.90;;;17.10;51.60;;;;;;5136226;27;20011;-52
2022/02/17 06:43:05;;;;;;;8.20;2.85;;;17.00;51.60;;;;;;5137712;27;20466;-49
2022/02/17 06:45:31;;;;;;;9.60;3.35;;;17.00;51.60;;;;;;5137407;27;20067;-46
2022/02/17 06:47:57;;;;;;;11.23;3.38;;;17.00;51.50;;;;;;5135726;27;20072;-50
2022/02/17 06:50:23;;;;;;;10.68;3.08;;;17.10;51.50;;;;;;5136928;27;20020;-53
2022/02/17 06:52:49;;;;;;;10.52;3.17;;;17.10;51.50;;;;;;5118197;27;20542;-50
2022/02/17 06:55:15;;;;;;;9.13;3.22;;;17.00;51.50;;;;;;5135313;27;20350;-48
2022/02/17 06:57:41;;;;;;;11.20;3.47;;;17.00;51.50;;;;;;5136188;27;20068;-46
2022/02/17 07:00:10;;;;;;;10.52;3.40;;;17.00;51.40;;;;;;5135765;27;20034;-47
2022/02/17 07:02:36;;;;;;;13.07;3.40;;;17.00;51.40;;;;;;5136789;27;20023;-48
2022/02/17 07:05:02;;;;;;;11.77;4.07;;;17.10;51.60;;;;;;5135730;27;20481;-45
2022/02/17 07:07:28;;;;;;;9.32;3.55;;;17.10;51.30;;;;;;5136876;27;20019;-47
2022/02/17 07:09:54;;;;;;;15.55;4.72;;;17.10;51.20;;;;;;5135973;27;20019;-50
2022/02/17 07:12:20;;;;;;;14.35;4.53;;;17.10;50.70;;;;;;5117291;27;20019;-47
2022/02/17 07:14:45;;;;;;;17.88;5.30;;;17.10;50.60;;;;;;5135030;27;20461;-49
2022/02/17 07:17:12;;;;;;;17.45;4.65;;;17.10;50.60;;;;;;5116610;27;20020;-47
2022/02/17 07:19:38;;;;;;;16.48;4.70;;;17.10;50.70;;;;;;5132795;27;20515;-44
2022/02/17 07:22:04;;;;;;;13.57;4.45;;;17.10;50.70;;;;;;5132342;27;20023;-48
2022/02/17 07:24:30;;;;;;;22.88;5.90;;;17.10;51.20;;;;;;5133332;27;20011;-45
2022/02/17 07:26:56;;;;;;;18.55;4.90;;;17.30;52.70;;;;;;5133317;27;20384;-45
2022/02/17 07:29:22;;;;;;;22.65;5.47;;;17.50;53.30;;;;;;5131529;27;20535;-45
2022/02/17 07:31:52;;;;;;;29.48;6.72;;;17.80;53.40;;;;;;5134072;27;20027;-42
2022/02/17 07:34:19;;;;;;;30.05;6.35;;;18.00;53.50;;;;;;5132801;27;20053;-44
2022/02/17 07:36:45;;;;;;;29.70;7.50;;;18.20;53.50;;;;;;5132852;27;20484;-44
2022/02/17 07:39:10;;;;;;;21.63;6.38;;;18.30;53.60;;;;;;5134083;27;20011;-44
2022/02/17 07:41:37;;;;;;;32.00;7.05;;;18.40;53.70;;;;;;5115333;27;20015;-46
2022/02/17 07:44:04;;;;;;;32.50;6.93;;;18.50;53.80;;;;;;5134346;27;20465;-45
2022/02/17 07:46:31;;;;;;;28.83;7.53;;;18.60;53.60;;;;;;5132862;27;20038;-46
2022/02/17 07:48:57;;;;;;;27.92;7.45;;;18.60;53.40;;;;;;5133935;27;20033;-43
2022/02/17 07:51:22;;;;;;;32.33;8.20;;;18.70;53.30;;;;;;5132988;27;20426;-44
2022/02/17 07:53:48;;;;;;;32.53;7.63;;;18.80;53.20;;;;;;5132255;27;20497;-44
2022/02/17 07:56:13;;;;;;;28.88;7.80;;;18.90;52.60;;;;;;5133592;27;20030;-45
2022/02/17 07:58:39;;;;;;;30.00;8.52;;;18.90;52.60;;;;;;5133825;27;20023;-44
2022/02/17 08:01:07;;;;;;;29.50;8.60;;;19.00;52.60;;;;;;5132631;27;20011;-45
2022/02/17 08:03:33;;;;;;;31.67;8.40;;;19.20;52.80;;;;;;5132520;27;20038;-43
2022/02/17 08:05:59;;;;;;;33.50;7.43;;;19.30;52.80;;;;;;5133746;27;20027;-45
2022/02/17 08:08:25;;;;;;;32.58;7.85;;;19.40;53.20;;;;;;5133963;27;20011;-44
2022/02/17 08:10:52;;;;;;;34.28;7.72;;;19.60;53.30;;;;;;5114998;27;20035;-42
2022/02/17 08:13:19;;;;;;;34.05;8.48;;;19.60;53.70;;;;;;5130913;27;20027;-42
2022/02/17 08:15:45;;;;;;;27.23;7.45;;;19.70;54.10;;;;;;5130866;27;20046;-44
2022/02/17 08:18:11;;;;;;;34.08;8.73;;;19.60;52.90;;;;;;5131846;27;20095;-42
2022/02/17 08:20:37;;;;;;;42.42;9.48;;;19.40;53.30;;;;;;5132087;27;20032;-43
2022/02/17 08:23:03;;;;;;;36.67;7.78;;;19.30;52.70;;;;;;5133384;27;20091;-45
2022/02/17 08:25:28;;;;;;;43.50;8.80;;;19.30;52.50;;;;;;5132971;27;20046;-46
2022/02/17 08:27:55;;;;;;;38.22;8.43;;;19.30;52.50;;;;;;5134020;27;20062;-42
2022/02/17 08:30:23;;;;;;;36.97;9.05;;;19.20;51.70;;;;;;5134074;27;20015;-43
2022/02/17 08:32:49;;;;;;;30.00;7.95;;;19.20;51.40;;;;;;5131717;27;20122;-42
2022/02/17 08:35:15;;;;;;;25.15;6.30;;;19.20;51.40;;;;;;5133384;27;20018;-41
2022/02/17 08:37:43;;;;;;;28.95;7.45;;;19.20;50.80;;;;;;5131481;27;20092;-43
2022/02/17 08:40:10;;;;;;;28.73;7.45;;;19.20;50.50;;;;;;5132717;27;20011;-44
2022/02/17 08:42:36;;;;;;;32.95;7.68;;;19.20;50.20;;;;;;5132740;27;20026;-42
2022/02/17 08:45:02;;;;;;;32.38;8.05;;;19.30;50.10;;;;;;5132261;27;20136;-42
2022/02/17 08:47:29;;;;;;;31.33;7.85;;;19.20;50.20;;;;;;5132384;27;20015;-42
2022/02/17 08:49:57;;;;;;;34.75;7.22;;;19.30;49.90;;;;;;5132440;27;20039;-41
2022/02/17 08:52:23;;;;;;;36.92;7.78;;;19.30;49.70;;;;;;5132429;27;20083;-44
2022/02/17 08:54:49;;;;;;;28.55;7.38;;;19.30;49.40;;;;;;5132576;27;20383;-43
2022/02/17 08:57:15;;;;;;;38.40;8.48;;;19.30;49.30;;;;;;5132228;27;20107;-44
2022/02/17 08:59:41;;;;;;;29.95;7.30;;;19.30;49.10;;;;;;5130527;27;20015;-42
2022/02/17 09:02:06;;;;;;;25.38;7.88;;;19.30;49.10;;;;;;5113338;27;20037;-42
2022/02/17 09:04:33;;;;;;;93.55;14.98;;;19.30;48.90;;;;;;5132364;27;20490;-43
2022/02/17 09:07:02;;;;;;;37.00;8.48;;;19.20;48.60;;;;;;5132565;27;20426;-44
2022/02/17 09:09:27;;;;;;;44.95;8.13;;;19.10;48.50;;;;;;5131916;27;20031;-44
2022/02/17 09:11:53;;;;;;;35.08;7.75;;;19.00;48.70;;;;;;5133622;28;20087;-43
2022/02/17 09:14:20;;;;;;;36.03;7.70;;;18.90;48.80;;;;;;5131574;28;20055;-43
2022/02/17 09:16:46;;;;;;;34.30;7.80;;;18.80;49.40;;;;;;5131767;27;20019;-43
2022/02/17 09:19:13;;;;;;;29.83;7.25;;;18.70;49.00;;;;;;5136975;27;20508;-42
2022/02/17 09:21:40;;;;;;;35.30;7.43;;;18.60;49.10;;;;;;5138491;27;20008;-42
2022/02/17 09:24:06;;;;;;;27.75;7.15;;;18.50;49.20;;;;;;5137186;27;20026;-42
2022/02/17 09:26:36;;;;;;;29.75;6.55;;;18.50;49.40;;;;;;5138190;27;20015;-43
2022/02/17 09:29:03;;;;;;;26.02;7.60;;;18.40;49.50;;;;;;5137252;27;20016;-45
2022/02/17 09:31:28;;;;;;;30.52;7.90;;;18.30;49.50;;;;;;5137842;27;20437;-41
2022/02/17 09:33:57;;;;;;;29.65;7.75;;;18.30;49.60;;;;;;5137289;27;20024;-43
2022/02/17 09:36:25;;;;;;;31.13;6.57;;;18.20;49.60;;;;;;5137233;27;20081;-41
2022/02/17 09:38:52;;;;;;;29.42;7.18;;;18.20;49.60;;;;;;5136157;27;20039;-42
2022/02/17 09:41:20;;;;;;;21.92;6.47;;;18.20;49.50;;;;;;5136708;27;20011;-43
2022/02/17 09:43:46;;;;;;;25.83;7.57;;;18.10;49.60;;;;;;5136890;27;20064;-43
2022/02/17 09:46:20;;;;;;;26.10;6.32;;;18.10;49.70;;;;;;5137538;27;20015;-43
2022/02/17 09:49:00;;;;;;;28.05;7.47;;;18.00;49.70;;;;;;5137155;27;20102;-43
2022/02/17 09:51:30;;;;;;;24.08;6.50;;;18.00;49.80;;;;;;5137192;27;20031;-46
2022/02/17 09:53:55;;;;;;;20.88;6.35;;;18.00;49.80;;;;;;5137085;27;20023;-47
2022/02/17 09:56:25;;;;;;;31.27;7.10;;;18.00;50.00;;;;;;5136885;27;20012;-45
2022/02/17 09:58:54;;;;;;;25.55;6.60;;;18.00;50.00;;;;;;5135562;27;20068;-45
2022/02/17 10:01:21;;;;;;;23.83;5.85;;;17.90;50.00;;;;;;5136962;27;20106;-48
2022/02/17 10:03:46;;;;;;;22.85;6.05;;;17.90;50.00;;;;;;5136993;27;20098;-47
2022/02/17 10:06:14;;;;;;;24.27;6.15;;;17.90;50.10;;;;;;5100768;27;20101;-46
2022/02/17 10:08:40;;;;;;;23.88;6.65;;;17.90;50.20;;;;;;5117381;27;20064;-44
2022/02/17 10:11:07;;;;;;;23.35;6.18;;;17.90;50.20;;;;;;5134237;27;20011;-48
2022/02/17 10:13:33;;;;;;;25.38;6.95;;;17.90;50.40;;;;;;5135854;27;20110;-46
2022/02/17 10:15:59;;;;;;;28.40;6.57;;;18.00;51.00;;;;;;5136659;27;20083;-44
2022/02/17 10:18:30;;;;;;;27.55;6.80;;;18.10;51.10;;;;;;5135599;27;20054;-49
2022/02/17 10:21:07;;;;;;;34.10;6.43;;;18.20;50.80;;;;;;5136861;27;20469;-45
2022/02/17 10:23:43;;;;;;;23.58;6.88;;;18.10;50.70;;;;;;5136857;27;20008;-45
2022/02/17 10:26:16;;;;;;;27.23;5.78;;;18.10;50.70;;;;;;5136728;27;20026;-45
2022/02/17 10:28:52;;;;;;;24.10;5.97;;;18.00;50.70;;;;;;5135478;27;20094;-47
2022/02/17 10:31:23;;;;;;;24.55;6.65;;;18.10;50.70;;;;;;5135523;27;20015;-45
2022/02/17 10:33:52;;;;;;;30.35;5.88;;;18.00;50.60;;;;;;5136337;27;20052;-50
2022/02/17 10:36:31;;;;;;;21.45;5.47;;;18.00;50.60;;;;;;5137015;27;20027;-50
2022/02/17 10:39:22;;;;;;;18.85;5.88;;;17.90;50.70;;;;;;5134990;27;20021;-50
2022/02/17 10:41:53;;;;;;;27.08;6.10;;;17.90;50.70;;;;;;5134784;27;20051;-46
2022/02/17 10:44:20;;;;;;;22.23;5.95;;;17.90;50.60;;;;;;5133945;27;20461;-48
2022/02/17 10:47:11;;;;;;;26.15;5.78;;;17.90;50.60;;;;;;5135430;27;20023;-50
2022/02/17 10:49:41;;;;;;;20.42;5.80;;;17.90;50.60;;;;;;5135779;27;20027;-49
2022/02/17 10:52:07;;;;;;;26.05;5.60;;;17.90;50.60;;;;;;5134206;27;20477;-49
2022/02/17 10:54:33;;;;;;;15.30;5.05;;;17.80;50.60;;;;;;5135610;27;20076;-51
2022/02/17 10:57:03;;;;;;;18.40;5.60;;;17.80;50.50;;;;;;5136004;27;20015;-51
2022/02/17 11:02:22;;;;;;;26.38;4.95;;;17.80;50.40;;;;;;5135522;27;20030;-49
2022/02/17 11:04:51;;;;;;;17.33;5.15;;;17.80;50.30;;;;;;5135751;27;20052;-51
2022/02/17 11:07:18;;;;;;;17.13;4.65;;;17.80;50.20;;;;;;5135582;27;20038;-52
2022/02/17 11:09:45;;;;;;;21.55;4.60;;;17.80;49.90;;;;;;5135745;27;20110;-49
2022/02/17 11:12:11;;;;;;;28.00;5.15;;;17.80;49.80;;;;;;5134451;27;20090;-51
2022/02/17 11:14:38;;;;;;;22.58;5.22;;;17.80;49.60;;;;;;5135302;27;20444;-52
2022/02/17 11:17:04;;;;;;;18.85;4.57;;;17.70;49.40;;;;;;5135704;27;20019;-53
2022/02/17 11:19:31;;;;;;;16.10;4.68;;;17.70;49.10;;;;;;5135846;27;20066;-49
2022/02/17 11:21:56;;;;;;;16.70;4.25;;;17.70;49.10;;;;;;5135727;27;20104;-50
2022/02/17 11:24:22;;;;;;;16.08;4.50;;;17.70;49.00;;;;;;5135935;27;20019;-50
2022/02/17 11:26:48;;;;;;;19.00;4.35;;;17.70;49.00;;;;;;5136098;27;20043;-50
2022/02/17 11:29:27;;;;;;;16.55;4.20;;;17.70;48.90;;;;;;5100131;27;20019;-52
2022/02/17 11:32:00;;;;;;;15.18;4.53;;;17.70;48.90;;;;;;5118150;27;20015;-50
2022/02/17 11:34:41;;;;;;;17.00;4.57;;;17.70;48.90;;;;;;5135442;27;20035;-52
2022/02/17 11:37:44;;;;;;;17.08;4.30;;;17.70;48.90;;;;;;5135715;27;20084;-54
2022/02/17 11:40:15;;;;;;;16.15;4.38;;;17.70;48.80;;;;;;5134312;27;20114;-47
2022/02/17 11:42:46;;;;;;;17.88;4.38;;;17.70;48.80;;;;;;5135227;27;20012;-51
2022/02/17 11:45:20;;;;;;;15.75;4.75;;;17.70;48.70;;;;;;5134090;27;20019;-50
2022/02/17 11:47:58;;;;;;;13.70;3.58;;;17.70;48.60;;;;;;5134154;27;20076;-52
2022/02/17 11:50:40;;;;;;;16.35;4.45;;;17.70;48.70;;;;;;5134742;27;20016;-50
2022/02/17 11:53:28;;;;;;;13.93;4.47;;;17.70;48.60;;;;;;5134676;27;20083;-50
2022/02/17 11:56:06;;;;;;;14.77;4.28;;;17.70;48.50;;;;;;5134941;27;20019;-50
2022/02/17 11:58:43;;;;;;;18.30;4.32;;;17.70;48.50;;;;;;5134411;27;20011;-51
2022/02/17 12:01:24;;;;;;;15.52;3.85;;;17.70;48.50;;;;;;5134188;27;20114;-48
2022/02/17 12:04:08;;;;;;;12.75;4.13;;;17.70;48.50;;;;;;5134544;27;20022;-47
2022/02/17 12:06:47;;;;;;;16.60;3.63;;;17.60;48.40;;;;;;5115628;27;20473;-50
2022/02/17 12:09:47;;;;;;;12.95;3.50;;;17.60;48.30;;;;;;5133162;27;20099;-48
2022/02/17 12:12:13;;;;;;;14.47;4.20;;;17.60;48.20;;;;;;5133457;27;20105;-49
2022/02/17 12:14:45;;;;;;;9.18;3.42;;;17.60;48.20;;;;;;5133182;27;20316;-48
2022/02/17 12:17:11;;;;;;;13.68;4.05;;;17.60;48.20;;;;;;5131767;27;20038;-46
2022/02/17 12:19:39;;;;;;;12.82;4.07;;;17.60;48.10;;;;;;5131578;27;20350;-50
2022/02/17 12:22:06;;;;;;;15.77;3.50;;;17.60;48.10;;;;;;5133742;27;20007;-47
2022/02/17 12:24:37;;;;;;;12.68;3.63;;;17.60;48.10;;;;;;5133650;27;20114;-46
2022/02/17 12:27:03;;;;;;;14.07;3.55;;;17.60;48.00;;;;;;5132394;27;20015;-48
2022/02/17 12:29:33;;;;;;;11.38;3.72;;;17.60;47.90;;;;;;5131822;27;20031;-48
2022/02/17 12:32:06;;;;;;;12.75;3.75;;;17.60;47.80;;;;;;5133029;27;20470;-53
2022/02/17 12:34:32;;;;;;;9.68;3.50;;;17.60;47.80;;;;;;5131951;27;20023;-52
2022/02/17 12:36:59;;;;;;;13.77;4.00;;;17.60;47.70;;;;;;5131831;27;20031;-49
2022/02/17 12:39:25;;;;;;;12.68;3.40;;;17.60;47.60;;;;;;5132540;27;20462;-49
2022/02/17 12:42:04;;;;;;;12.80;3.28;;;17.60;47.60;;;;;;5132322;27;20373;-51
2022/02/17 12:44:35;;;;;;;11.40;3.22;;;17.60;47.90;;;;;;5131453;27;20051;-52
2022/02/17 12:47:05;;;;;;;;;;;17.80;48.60;;;;;;5133402;27;20091;-53
2022/02/17 12:49:31;;;;;;;15.00;3.63;;;18.10;47.90;;;;;;5131762;27;19978;-52
2022/02/17 12:52:11;;;;;;;15.57;3.10;;;18.40;47.30;;;;;;5133264;27;20015;-50